Time;durP1;ratioP1;P1;durP2;ratioP2;P2;SDS_P1;SDS_P2;PMS_P1;PMS_P2;Temp;Humidity;BMP_temperature;BMP_pressure;BME280_temperature;BME280_humidity;BME280_pressure;Samples;Min_cycle;Max_cycle;Signal;HPM_P1;HPM_P2
2022/07/04 00:02:04;;;;;;;6.80;2.20;;;;;;;;;;5002438;28;20022;-72
2022/07/04 00:04:29;;;;;;;9.75;2.30;;;;;;;;;;5002375;28;20022;-73
2022/07/04 00:06:55;;;;;;;6.20;1.90;;;;;;;;;;4985155;28;20100;-73
2022/07/04 00:09:20;;;;;;;4.70;2.00;;;;;;;;;;5002261;28;20321;-72
2022/07/04 00:11:46;;;;;;;5.50;1.90;;;;;;;;;;5001749;28;20040;-72
2022/07/04 00:14:11;;;;;;;7.38;1.90;;;;;;;;;;4985118;28;20031;-72
2022/07/04 00:16:37;;;;;;;6.15;1.95;;;;;;;;;;5002257;28;20242;-72
2022/07/04 00:19:02;;;;;;;4.97;1.70;;;;;;;;;;5002261;28;20030;-73
2022/07/04 00:21:28;;;;;;;6.00;1.70;;;;;;;;;;5002090;28;20133;-73
2022/07/04 00:23:53;;;;;;;5.60;1.60;;;;;;;;;;4984797;28;20022;-73
2022/07/04 00:26:18;;;;;;;4.18;1.75;;;;;;;;;;4984931;28;20030;-73
2022/07/04 00:28:44;;;;;;;4.35;1.70;;;;;;;;;;5001753;28;20025;-73
2022/07/04 00:31:10;;;;;;;5.53;1.80;;;;;;;;;;5002236;28;20018;-75
2022/07/04 00:33:35;;;;;;;4.65;1.65;;;;;;;;;;5000779;28;20026;-72
2022/07/04 00:36:00;;;;;;;4.63;1.50;;;;;;;;;;5000228;28;20191;-72
2022/07/04 00:38:26;;;;;;;4.95;1.45;;;;;;;;;;5000725;28;20035;-72
2022/07/04 00:40:51;;;;;;;4.32;1.67;;;;;;;;;;5000338;28;20038;-75
2022/07/04 00:43:24;;;;;;;4.60;1.45;;;;;;;;;;5000625;28;20034;-72
2022/07/04 00:45:50;;;;;;;4.78;1.60;;;;;;;;;;5000658;28;20031;-72
2022/07/04 00:48:16;;;;;;;5.95;1.58;;;;;;;;;;5000145;28;20088;-73
2022/07/04 00:50:43;;;;;;;5.57;1.35;;;;;;;;;;5000551;28;20022;-72
2022/07/04 00:53:09;;;;;;;4.88;1.48;;;;;;;;;;5000473;28;20030;-73
2022/07/04 00:55:34;;;;;;;9.13;1.60;;;;;;;;;;5001594;28;20218;-72
2022/07/04 00:57:59;;;;;;;5.25;1.35;;;;;;;;;;5001048;28;20030;-73
2022/07/04 01:00:25;;;;;;;5.88;1.50;;;;;;;;;;5000400;28;20034;-77
2022/07/04 01:02:50;;;;;;;3.42;1.30;;;;;;;;;;5000832;28;20337;-72
2022/07/04 01:05:16;;;;;;;5.35;1.73;;;;;;;;;;4999678;28;20031;-75
2022/07/04 01:07:43;;;;;;;4.78;1.30;;;;;;;;;;4979049;28;20139;-75
2022/07/04 01:10:09;;;;;;;4.18;1.25;;;;;;;;;;4998345;28;20026;-71
2022/07/04 01:12:35;;;;;;;4.65;1.23;;;;;;;;;;5000812;28;20384;-74
2022/07/04 01:15:01;;;;;;;3.20;1.20;;;;;;;;;;5000791;28;20030;-75
2022/07/04 01:17:26;;;;;;;5.35;1.50;;;;;;;;;;5000056;28;20049;-73
2022/07/04 01:19:52;;;;;;;4.10;1.30;;;;;;;;;;5001445;28;20214;-73
2022/07/04 01:22:19;;;;;;;4.45;1.33;;;;;;;;;;5001610;28;20030;-73
2022/07/04 01:24:44;;;;;;;6.72;1.40;;;;;;;;;;5001784;28;20098;-72
2022/07/04 01:27:10;;;;;;;5.18;1.25;;;;;;;;;;5001723;28;20328;-74
2022/07/04 01:29:35;;;;;;;6.85;1.58;;;;;;;;;;5001416;28;20034;-75
2022/07/04 01:32:08;;;;;;;6.25;1.40;;;;;;;;;;5001680;28;20038;-73
2022/07/04 01:34:34;;;;;;;4.47;1.30;;;;;;;;;;5001508;28;20037;-75
2022/07/04 01:37:00;;;;;;;3.47;1.27;;;;;;;;;;4999890;28;20034;-71
2022/07/04 01:39:29;;;;;;;3.55;1.30;;;;;;;;;;4998667;28;20364;-73
2022/07/04 01:41:55;;;;;;;7.47;1.45;;;;;;;;;;5000959;28;20041;-72
2022/07/04 01:44:20;;;;;;;7.72;1.40;;;;;;;;;;4995945;28;20105;-75
2022/07/04 01:46:46;;;;;;;5.65;1.40;;;;;;;;;;4999819;28;20065;-72
2022/07/04 01:49:11;;;;;;;5.75;1.42;;;;;;;;;;5003334;28;20130;-73
2022/07/04 01:51:44;;;;;;;5.65;1.50;;;;;;;;;;5003452;28;20034;-73
2022/07/04 01:54:10;;;;;;;2.92;1.20;;;;;;;;;;4985895;28;20249;-72
2022/07/04 01:56:35;;;;;;;6.40;1.60;;;;;;;;;;5002937;28;20318;-74
2022/07/04 01:59:03;;;;;;;6.00;1.20;;;;;;;;;;4999859;28;20108;-73
2022/07/04 02:01:29;;;;;;;5.57;1.30;;;;;;;;;;5003598;28;20050;-73
2022/07/04 02:03:56;;;;;;;6.40;1.42;;;;;;;;;;4995354;28;20433;-73
2022/07/04 02:06:21;;;;;;;4.85;1.30;;;;;;;;;;5001509;28;20113;-73
2022/07/04 02:09:30;;;;;;;5.72;1.50;;;;;;;;;;5001812;28;20222;-73
2022/07/04 02:14:19;;;;;;;3.92;1.40;;;;;;;;;;5003201;28;20116;-73
2022/07/04 02:16:45;;;;;;;7.60;1.40;;;;;;;;;;4999668;28;20502;-73
2022/07/04 02:19:10;;;;;;;4.63;1.30;;;;;;;;;;5001627;28;20426;-73
2022/07/04 02:21:36;;;;;;;7.50;1.65;;;;;;;;;;5000492;28;20031;-75
2022/07/04 02:24:01;;;;;;;7.25;1.60;;;;;;;;;;5002941;28;20298;-73
2022/07/04 02:26:27;;;;;;;6.80;1.42;;;;;;;;;;5003533;28;20093;-73
2022/07/04 02:28:52;;;;;;;9.25;1.50;;;;;;;;;;5003376;28;20034;-73
2022/07/04 02:31:18;;;;;;;3.85;1.20;;;;;;;;;;5002527;28;20142;-73
2022/07/04 02:33:43;;;;;;;6.80;1.77;;;;;;;;;;4999041;28;20326;-73
2022/07/04 02:36:09;;;;;;;5.65;1.52;;;;;;;;;;5002195;28;20052;-73
2022/07/04 02:38:34;;;;;;;6.65;1.55;;;;;;;;;;5000125;28;20034;-73
2022/07/04 02:40:59;;;;;;;7.15;1.50;;;;;;;;;;4998217;28;20089;-73
2022/07/04 02:43:25;;;;;;;4.00;1.50;;;;;;;;;;4999310;28;20030;-73
2022/07/04 02:45:50;;;;;;;4.60;1.52;;;;;;;;;;4996062;28;20176;-73
2022/07/04 02:48:16;;;;;;;5.00;1.35;;;;;;;;;;4983704;28;20030;-73
2022/07/04 02:50:41;;;;;;;5.75;1.50;;;;;;;;;;4999757;28;20049;-73
2022/07/04 02:53:07;;;;;;;5.47;1.40;;;;;;;;;;4998146;28;20030;-74
2022/07/04 02:55:32;;;;;;;6.30;1.40;;;;;;;;;;5000415;28;20109;-73
2022/07/04 02:57:58;;;;;;;4.47;1.40;;;;;;;;;;4998601;28;20380;-73
2022/07/04 03:00:23;;;;;;;5.03;1.52;;;;;;;;;;5000246;28;20030;-73
2022/07/04 03:02:49;;;;;;;4.68;1.60;;;;;;;;;;4998053;28;20038;-73
2022/07/04 03:05:14;;;;;;;4.05;1.60;;;;;;;;;;4999446;28;20032;-74
2022/07/04 03:07:40;;;;;;;5.82;1.67;;;;;;;;;;5001785;28;20049;-74
2022/07/04 03:10:06;;;;;;;4.65;1.48;;;;;;;;;;4996679;28;20330;-73
2022/07/04 03:12:32;;;;;;;6.18;1.60;;;;;;;;;;4999978;28;20029;-74
2022/07/04 03:14:59;;;;;;;5.55;1.60;;;;;;;;;;5000753;28;20086;-73
2022/07/04 03:17:25;;;;;;;5.28;1.55;;;;;;;;;;4996630;28;20026;-74
2022/07/04 03:19:50;;;;;;;4.97;1.80;;;;;;;;;;4995270;28;20030;-73
2022/07/04 03:22:16;;;;;;;6.80;1.60;;;;;;;;;;4996983;28;20149;-73
2022/07/04 03:24:41;;;;;;;6.45;1.73;;;;;;;;;;4997902;28;20041;-73
2022/07/04 03:27:06;;;;;;;5.20;1.73;;;;;;;;;;5001284;28;20026;-74
2022/07/04 03:29:32;;;;;;;3.90;1.50;;;;;;;;;;4997516;28;20033;-74
2022/07/04 03:31:57;;;;;;;5.20;1.77;;;;;;;;;;4996520;28;20030;-73
2022/07/04 03:34:23;;;;;;;6.22;2.00;;;;;;;;;;4994780;28;20038;-73
2022/07/04 03:36:49;;;;;;;7.30;1.70;;;;;;;;;;4996865;28;20037;-74
2022/07/04 03:39:14;;;;;;;3.60;1.55;;;;;;;;;;4999506;28;20504;-73
2022/07/04 03:41:39;;;;;;;5.07;1.90;;;;;;;;;;4995839;28;20026;-73
2022/07/04 03:44:05;;;;;;;7.22;1.80;;;;;;;;;;5000097;28;20037;-73
2022/07/04 03:46:30;;;;;;;6.72;2.00;;;;;;;;;;4997878;28;20022;-73
2022/07/04 03:48:56;;;;;;;5.60;1.65;;;;;;;;;;4998522;28;20038;-74
2022/07/04 03:51:22;;;;;;;3.85;1.60;;;;;;;;;;4997033;28;20029;-74
2022/07/04 03:53:48;;;;;;;4.55;1.63;;;;;;;;;;4997175;28;20624;-74
2022/07/04 03:56:14;;;;;;;4.95;1.67;;;;;;;;;;4997660;28;20169;-74
2022/07/04 03:58:42;;;;;;;6.90;1.83;;;;;;;;;;4999445;28;20605;-74
2022/07/04 04:01:08;;;;;;;6.30;2.05;;;;;;;;;;4999408;28;20317;-73
2022/07/04 04:06:17;;;;;;;6.05;1.88;;;;;;;;;;4996526;28;20261;-74
2022/07/04 04:08:43;;;;;;;4.18;1.50;;;;;;;;;;4976235;28;20031;-74
2022/07/04 04:11:08;;;;;;;8.05;2.03;;;;;;;;;;4994841;28;20529;-73
2022/07/04 04:13:33;;;;;;;4.63;1.70;;;;;;;;;;5000264;28;20022;-73
2022/07/04 04:15:59;;;;;;;5.93;2.10;;;;;;;;;;4994497;28;20035;-73
2022/07/04 04:18:24;;;;;;;3.97;1.65;;;;;;;;;;4995652;28;20022;-74
2022/07/04 04:20:50;;;;;;;5.68;2.15;;;;;;;;;;4997767;28;20407;-74
2022/07/04 04:23:15;;;;;;;6.95;1.90;;;;;;;;;;4991362;28;20034;-74
2022/07/04 04:25:41;;;;;;;4.25;1.77;;;;;;;;;;4994449;28;20423;-74
2022/07/04 04:28:06;;;;;;;7.05;1.75;;;;;;;;;;4998055;28;20416;-73
2022/07/04 04:30:31;;;;;;;7.00;1.70;;;;;;;;;;4997757;28;20101;-74
2022/07/04 04:32:57;;;;;;;5.43;1.95;;;;;;;;;;4997881;28;20030;-73
2022/07/04 04:35:22;;;;;;;7.90;2.25;;;;;;;;;;4994110;28;20492;-73
2022/07/04 04:37:48;;;;;;;6.00;1.88;;;;;;;;;;4995199;28;20030;-73
2022/07/04 04:40:14;;;;;;;6.22;1.80;;;;;;;;;;4997847;28;20409;-73
2022/07/04 04:42:40;;;;;;;5.82;2.00;;;;;;;;;;4998412;28;20092;-73
2022/07/04 04:45:06;;;;;;;5.78;2.00;;;;;;;;;;4997187;28;20046;-73
2022/07/04 04:47:31;;;;;;;5.68;2.13;;;;;;;;;;4995419;28;20027;-72
2022/07/04 04:49:57;;;;;;;5.47;2.00;;;;;;;;;;4992924;28;20438;-76
2022/07/04 04:52:22;;;;;;;7.40;2.00;;;;;;;;;;4990603;28;20026;-73
2022/07/04 04:54:48;;;;;;;6.15;2.25;;;;;;;;;;4992902;28;20049;-73
2022/07/04 04:57:13;;;;;;;7.78;2.30;;;;;;;;;;4993250;28;20074;-73
2022/07/04 04:59:38;;;;;;;9.23;2.08;;;;;;;;;;4990278;28;20027;-73
2022/07/04 05:02:04;;;;;;;9.52;2.03;;;;;;;;;;4990980;28;20027;-73
2022/07/04 05:04:29;;;;;;;8.18;2.00;;;;;;;;;;4990484;28;20034;-73
2022/07/04 05:06:56;;;;;;;8.23;2.28;;;;;;;;;;4991034;28;20050;-73
2022/07/04 05:09:21;;;;;;;5.82;2.10;;;;;;;;;;4993956;28;20031;-73
2022/07/04 05:11:47;;;;;;;6.63;1.92;;;;;;;;;;4991270;28;20033;-73
2022/07/04 05:14:13;;;;;;;6.90;2.03;;;;;;;;;;4990869;28;20023;-73
2022/07/04 05:16:39;;;;;;;5.95;1.77;;;;;;;;;;4991105;28;20023;-73
2022/07/04 05:19:04;;;;;;;7.78;2.00;;;;;;;;;;4990929;28;20022;-73
2022/07/04 05:21:30;;;;;;;9.02;2.22;;;;;;;;;;4992195;28;20064;-72
2022/07/04 05:23:56;;;;;;;5.70;2.17;;;;;;;;;;4996761;28;20678;-73
2022/07/04 05:26:22;;;;;;;9.63;2.10;;;;;;;;;;4996937;28;20089;-73
2022/07/04 05:28:47;;;;;;;8.63;2.17;;;;;;;;;;4994641;28;20056;-73
2022/07/04 05:31:13;;;;;;;7.47;2.05;;;;;;;;;;4976257;28;20101;-73
2022/07/04 05:33:38;;;;;;;7.15;2.40;;;;;;;;;;4996814;28;20049;-72
2022/07/04 05:36:04;;;;;;;5.60;1.98;;;;;;;;;;4994300;28;20028;-73
2022/07/04 05:38:29;;;;;;;12.18;2.22;;;;;;;;;;4995084;28;20030;-73
2022/07/04 05:40:55;;;;;;;7.78;2.15;;;;;;;;;;4999063;28;20034;-73
2022/07/04 05:43:21;;;;;;;7.25;2.13;;;;;;;;;;5004869;28;20041;-73
2022/07/04 05:45:48;;;;;;;8.30;2.20;;;;;;;;;;5005138;28;20031;-72
2022/07/04 05:48:13;;;;;;;7.28;2.00;;;;;;;;;;5004950;28;20038;-75
2022/07/04 05:50:39;;;;;;;8.05;2.10;;;;;;;;;;5001834;28;20037;-76
2022/07/04 05:53:04;;;;;;;5.57;1.90;;;;;;;;;;4999893;28;20326;-77
2022/07/04 05:55:30;;;;;;;9.70;2.30;;;;;;;;;;5001984;28;20042;-78
2022/07/04 05:57:56;;;;;;;7.72;2.00;;;;;;;;;;5004874;28;20026;-73
2022/07/04 06:00:21;;;;;;;7.82;1.90;;;;;;;;;;5004729;28;20093;-74
2022/07/04 06:02:47;;;;;;;6.43;2.15;;;;;;;;;;5004776;28;20035;-74
2022/07/04 06:05:13;;;;;;;4.70;1.90;;;;;;;;;;5004747;28;20089;-73
2022/07/04 06:07:38;;;;;;;8.68;2.03;;;;;;;;;;5002641;28;20038;-72
2022/07/04 06:10:05;;;;;;;7.57;1.98;;;;;;;;;;5004579;28;20030;-81
2022/07/04 06:12:31;;;;;;;9.35;2.28;;;;;;;;;;4999344;28;20042;-77
2022/07/04 06:14:56;;;;;;;7.72;2.05;;;;;;;;;;5004245;28;20317;-78
2022/07/04 06:17:22;;;;;;;6.25;2.00;;;;;;;;;;5004281;28;20077;-82
2022/07/04 06:19:47;;;;;;;9.45;2.00;;;;;;;;;;5003326;28;20032;-80
2022/07/04 06:22:13;;;;;;;6.03;1.85;;;;;;;;;;5002166;28;20038;-86
2022/07/04 06:24:38;;;;;;;6.53;1.92;;;;;;;;;;5001969;28;20064;-81
2022/07/04 06:27:04;;;;;;;6.70;1.80;;;;;;;;;;5003194;28;20259;-79
2022/07/04 06:29:29;;;;;;;4.85;2.00;;;;;;;;;;5002275;28;20073;-83
2022/07/04 06:31:55;;;;;;;4.85;1.80;;;;;;;;;;5002493;28;20081;-86
2022/07/04 06:37:05;;;;;;;7.00;2.10;;;;;;;;;;5004036;28;20065;-87
2022/07/04 06:39:30;;;;;;;9.20;2.00;;;;;;;;;;5004266;28;20030;-87
2022/07/04 06:41:56;;;;;;;6.75;2.00;;;;;;;;;;5004087;28;20052;-86
2022/07/04 06:44:21;;;;;;;7.88;1.98;;;;;;;;;;5004217;28;20097;-84
2022/07/04 06:46:47;;;;;;;4.78;1.77;;;;;;;;;;4989545;28;20052;-85
2022/07/04 06:49:12;;;;;;;6.57;1.85;;;;;;;;;;5005238;28;20018;-81
2022/07/04 06:51:38;;;;;;;7.35;1.95;;;;;;;;;;5004096;28;20322;-88
2022/07/04 06:54:03;;;;;;;6.68;1.70;;;;;;;;;;5004157;28;20328;-82
2022/07/04 06:56:29;;;;;;;6.72;1.88;;;;;;;;;;4983225;28;20117;-92
2022/07/04 06:58:54;;;;;;;9.07;1.90;;;;;;;;;;4984641;28;20041;-88
2022/07/04 07:01:20;;;;;;;10.13;1.70;;;;;;;;;;4984392;28;20030;-90
2022/07/04 07:03:45;;;;;;;6.70;2.03;;;;;;;;;;4984080;28;20274;-88
2022/07/04 07:06:10;;;;;;;5.50;1.67;;;;;;;;;;4984222;28;20026;-88
2022/07/04 07:08:36;;;;;;;7.38;1.70;;;;;;;;;;4984263;28;20019;-89
2022/07/04 07:11:12;;;;;;;5.72;1.90;;;;;;;;;;4983420;28;20070;-86
2022/07/04 07:13:42;;;;;;;12.18;2.08;;;;;;;;;;4983158;28;20061;-79
2022/07/04 07:16:07;;;;;;;;;;;;;;;;;;4982923;28;20023;-77
2022/07/04 07:18:33;;;;;;;13.40;2.15;;;;;;;;;;4982576;28;19910;-72
2022/07/04 07:20:58;;;;;;;68.40;5.53;;;;;;;;;;4982097;28;20089;-80
2022/07/04 07:23:24;;;;;;;16.17;2.25;;;;;;;;;;4982393;28;20311;-86
2022/07/04 07:25:49;;;;;;;13.18;2.22;;;;;;;;;;4981691;28;20130;-86
2022/07/04 07:28:15;;;;;;;16.25;2.55;;;;;;;;;;4983787;28;20438;-81
2022/07/04 07:30:40;;;;;;;11.32;2.10;;;;;;;;;;4980156;28;20349;-81
2022/07/04 07:33:06;;;;;;;11.32;2.28;;;;;;;;;;4980920;28;20097;-74
2022/07/04 07:35:31;;;;;;;9.02;1.92;;;;;;;;;;4983547;28;20046;-78
2022/07/04 07:37:57;;;;;;;9.70;2.10;;;;;;;;;;4982605;28;20322;-73
2022/07/04 07:40:22;;;;;;;8.15;1.90;;;;;;;;;;4979760;28;20035;-73
2022/07/04 07:42:48;;;;;;;9.63;1.83;;;;;;;;;;4981629;28;20077;-75
2022/07/04 07:45:13;;;;;;;9.57;2.00;;;;;;;;;;4981601;28;20081;-74
2022/07/04 07:47:39;;;;;;;8.90;2.00;;;;;;;;;;4979792;28;20034;-74
2022/07/04 07:50:05;;;;;;;6.30;1.73;;;;;;;;;;4965060;28;20034;-74
2022/07/04 07:52:31;;;;;;;24.60;2.60;;;;;;;;;;4958342;28;20606;-74
2022/07/04 07:54:56;;;;;;;7.97;2.10;;;;;;;;;;4963282;28;20637;-75
2022/07/04 07:57:22;;;;;;;9.02;1.90;;;;;;;;;;4991026;28;20034;-75
2022/07/04 07:59:47;;;;;;;9.00;1.92;;;;;;;;;;4994084;28;20026;-74
2022/07/04 08:02:13;;;;;;;5.57;1.70;;;;;;;;;;4982852;28;20037;-74
2022/07/04 08:04:40;;;;;;;6.22;1.70;;;;;;;;;;4999863;28;20034;-74
2022/07/04 08:07:10;;;;;;;8.57;1.70;;;;;;;;;;5000769;28;20045;-74
2022/07/04 08:09:36;;;;;;;5.40;1.67;;;;;;;;;;5000843;28;20310;-74
2022/07/04 08:12:03;;;;;;;10.45;2.10;;;;;;;;;;4997974;28;20038;-74
2022/07/04 08:14:30;;;;;;;7.65;1.85;;;;;;;;;;5000353;28;20026;-75
2022/07/04 08:16:57;;;;;;;7.13;2.05;;;;;;;;;;5001468;28;20027;-75
2022/07/04 08:19:24;;;;;;;8.50;2.25;;;;;;;;;;5001878;28;20027;-74
2022/07/04 08:21:50;;;;;;;8.25;2.00;;;;;;;;;;5001360;28;20149;-74
2022/07/04 08:24:16;;;;;;;7.68;2.10;;;;;;;;;;4997160;28;20041;-74
2022/07/04 08:26:42;;;;;;;8.48;2.00;;;;;;;;;;5001015;28;20052;-74
2022/07/04 08:29:08;;;;;;;7.97;2.40;;;;;;;;;;5000343;28;20230;-73
2022/07/04 08:31:33;;;;;;;8.80;1.85;;;;;;;;;;4998455;28;20093;-74
2022/07/04 08:33:59;;;;;;;8.98;2.00;;;;;;;;;;4993804;28;20088;-73
2022/07/04 08:36:24;;;;;;;11.77;2.70;;;;;;;;;;4983278;28;20023;-73
2022/07/04 08:38:50;;;;;;;4.85;2.50;;;;;;;;;;4998113;28;20359;-72
2022/07/04 08:41:17;;;;;;;9.82;2.67;;;;;;;;;;5001800;28;20026;-76
2022/07/04 08:43:42;;;;;;;8.77;2.70;;;;;;;;;;4996567;28;20209;-74
2022/07/04 08:46:10;;;;;;;6.22;2.50;;;;;;;;;;5001896;28;20026;-73
2022/07/04 08:48:38;;;;;;;21.52;3.55;;;;;;;;;;4984429;28;20026;-73
2022/07/04 08:51:12;;;;;;;20.02;3.72;;;;;;;;;;4979991;28;20284;-74
2022/07/04 08:53:39;;;;;;;28.75;4.32;;;;;;;;;;4998930;28;20030;-76
2022/07/04 08:58:53;;;;;;;9.15;3.20;;;;;;;;;;5002793;28;20077;-74
2022/07/04 09:01:19;;;;;;;8.73;3.42;;;;;;;;;;5002790;28;20027;-74
2022/07/04 09:03:45;;;;;;;18.02;3.30;;;;;;;;;;5003959;28;20033;-74
2022/07/04 09:06:12;;;;;;;51.53;5.43;;;;;;;;;;5003333;28;20044;-74
2022/07/04 09:08:39;;;;;;;132.75;10.48;;;;;;;;;;5002004;28;20022;-74
2022/07/04 09:11:05;;;;;;;60.45;6.13;;;;;;;;;;5002033;28;20026;-74
2022/07/04 09:13:31;;;;;;;11.05;3.30;;;;;;;;;;5000756;28;20033;-74
2022/07/04 09:15:57;;;;;;;10.38;3.10;;;;;;;;;;5004668;28;20026;-74
2022/07/04 09:18:23;;;;;;;16.08;3.42;;;;;;;;;;5004206;28;20026;-77
2022/07/04 09:20:49;;;;;;;13.82;3.30;;;;;;;;;;5004038;28;20322;-76
2022/07/04 09:23:22;;;;;;;14.18;3.20;;;;;;;;;;4997169;28;20038;-75
2022/07/04 09:26:05;;;;;;;8.10;3.38;;;;;;;;;;5004623;28;20451;-75
2022/07/04 09:28:31;;;;;;;14.85;3.30;;;;;;;;;;4999300;28;20080;-75
2022/07/04 09:30:58;;;;;;;7.43;3.08;;;;;;;;;;4983976;28;20038;-78
2022/07/04 09:33:44;;;;;;;9.95;3.63;;;;;;;;;;5002729;28;20037;-75
2022/07/04 09:36:18;;;;;;;6.47;3.00;;;;;;;;;;5001458;28;20022;-75
2022/07/04 09:38:44;;;;;;;6.80;3.00;;;;;;;;;;4998759;28;20034;-79
2022/07/04 09:41:25;;;;;;;9.75;2.97;;;;;;;;;;4998495;28;20018;-73
2022/07/04 09:44:02;;;;;;;6.63;3.00;;;;;;;;;;4974593;28;20022;-83
2022/07/04 09:46:28;;;;;;;6.65;3.13;;;;;;;;;;4995210;28;20034;-85
2022/07/04 09:48:54;;;;;;;7.32;2.88;;;;;;;;;;4977385;28;20026;-84
2022/07/04 09:51:42;;;;;;;11.48;3.30;;;;;;;;;;4984142;28;20038;-82
2022/07/04 09:54:15;;;;;;;5.85;2.60;;;;;;;;;;4993800;28;20490;-82
2022/07/04 09:56:42;;;;;;;6.68;2.60;;;;;;;;;;4993781;28;20046;-84
2022/07/04 09:59:07;;;;;;;6.78;2.65;;;;;;;;;;4993899;28;20030;-84
2022/07/04 10:01:33;;;;;;;5.57;2.58;;;;;;;;;;4995975;28;20080;-82
2022/07/04 10:03:58;;;;;;;10.20;2.90;;;;;;;;;;4993442;28;20038;-83
2022/07/04 10:06:25;;;;;;;4.85;2.65;;;;;;;;;;4995238;28;20030;-83
2022/07/04 10:08:51;;;;;;;6.95;2.72;;;;;;;;;;4993708;28;20108;-82
2022/07/04 10:11:18;;;;;;;9.77;2.70;;;;;;;;;;4979604;28;20445;-86
2022/07/04 10:13:43;;;;;;;3.95;2.42;;;;;;;;;;4993317;28;20030;-88
2022/07/04 10:16:09;;;;;;;10.40;2.97;;;;;;;;;;4993922;28;20081;-87
2022/07/04 10:18:35;;;;;;;6.45;2.80;;;;;;;;;;4994221;28;20030;-80
2022/07/04 10:21:01;;;;;;;5.97;2.50;;;;;;;;;;4995499;28;20027;-74
2022/07/04 10:23:31;;;;;;;5.32;2.58;;;;;;;;;;5000404;28;20042;-78
2022/07/04 10:25:57;;;;;;;4.70;2.40;;;;;;;;;;5000497;28;20322;-79
2022/07/04 10:28:24;;;;;;;5.95;2.50;;;;;;;;;;4992963;28;20041;-78
2022/07/04 10:30:54;;;;;;;6.45;2.20;;;;;;;;;;4976944;28;20420;-79
2022/07/04 10:33:28;;;;;;;10.43;2.60;;;;;;;;;;4996695;28;20034;-76
2022/07/04 10:36:03;;;;;;;4.50;2.50;;;;;;;;;;4982028;28;20177;-78
2022/07/04 10:38:48;;;;;;;4.88;2.33;;;;;;;;;;4979636;28;20026;-80
2022/07/04 10:41:14;;;;;;;5.07;2.58;;;;;;;;;;4997853;28;20038;-75
2022/07/04 10:44:08;;;;;;;5.72;2.67;;;;;;;;;;4994677;28;20042;-82
2022/07/04 10:46:43;;;;;;;6.40;2.42;;;;;;;;;;5001436;28;20045;-79
2022/07/04 10:49:14;;;;;;;3.88;2.30;;;;;;;;;;4991215;28;20057;-79
2022/07/04 10:52:09;;;;;;;8.75;2.10;;;;;;;;;;4999957;28;20037;-80
2022/07/04 10:54:37;;;;;;;4.88;2.22;;;;;;;;;;4996697;28;20038;-77
2022/07/04 10:57:13;;;;;;;6.10;2.30;;;;;;;;;;4995727;28;20093;-77
2022/07/04 10:59:43;;;;;;;4.40;1.90;;;;;;;;;;4995435;28;20124;-76
2022/07/04 11:02:09;;;;;;;;;;;;;;;;;;4995373;28;20313;-76
2022/07/04 11:05:07;;;;;;;6.22;2.30;;;;;;;;;;4994543;28;19919;-75
2022/07/04 11:07:35;;;;;;;9.45;2.03;;;;;;;;;;4982930;28;20039;-75
2022/07/04 11:10:10;;;;;;;5.78;2.15;;;;;;;;;;4992872;28;20035;-76
2022/07/04 11:15:27;;;;;;;7.88;2.25;;;;;;;;;;4995164;28;20065;-76
2022/07/04 11:17:53;;;;;;;8.85;2.20;;;;;;;;;;4994607;28;20030;-75
2022/07/04 11:20:20;;;;;;;3.70;1.80;;;;;;;;;;4978465;28;20030;-78
2022/07/04 11:22:46;;;;;;;4.13;2.15;;;;;;;;;;4990915;28;20474;-76
2022/07/04 11:25:12;;;;;;;5.13;2.10;;;;;;;;;;4992684;28;20033;-77
2022/07/04 11:27:39;;;;;;;4.63;1.95;;;;;;;;;;4996828;28;20034;-77
2022/07/04 11:30:06;;;;;;;3.88;2.00;;;;;;;;;;4994557;28;20112;-76
2022/07/04 11:32:33;;;;;;;3.35;1.80;;;;;;;;;;4997329;28;20031;-77
2022/07/04 11:34:59;;;;;;;5.22;2.20;;;;;;;;;;4995134;28;20084;-78
2022/07/04 11:37:25;;;;;;;3.75;2.00;;;;;;;;;;4995777;28;20046;-77
2022/07/04 11:45:22;;;;;;;5.72;2.55;;;;;;;;;;4978487;28;20454;-77
2022/07/04 11:47:49;;;;;;;7.03;2.58;;;;;;;;;;4992704;28;20486;-77
2022/07/04 11:50:19;;;;;;;4.75;2.35;;;;;;;;;;4988120;28;20021;-77
2022/07/04 11:52:53;;;;;;;6.72;2.45;;;;;;;;;;4998054;28;20088;-78
2022/07/04 11:55:21;;;;;;;6.38;2.35;;;;;;;;;;4994820;28;20410;-77
2022/07/04 11:57:49;;;;;;;6.03;2.60;;;;;;;;;;4996964;28;20089;-77
2022/07/04 12:00:17;;;;;;;4.95;2.30;;;;;;;;;;4989805;28;20022;-77
2022/07/04 12:02:48;;;;;;;4.78;2.22;;;;;;;;;;4977161;28;20026;-77
2022/07/04 12:05:15;;;;;;;7.18;2.42;;;;;;;;;;4992873;28;20041;-78
2022/07/04 12:07:43;;;;;;;6.82;2.33;;;;;;;;;;4993748;28;20030;-77
2022/07/04 12:10:14;;;;;;;8.63;2.35;;;;;;;;;;4994179;28;20114;-77
2022/07/04 12:13:15;;;;;;;4.13;2.40;;;;;;;;;;4975976;28;20039;-78
2022/07/04 12:15:45;;;;;;;6.63;2.47;;;;;;;;;;4978807;28;20476;-77
2022/07/04 12:18:25;;;;;;;4.88;2.20;;;;;;;;;;4992824;28;20085;-77
2022/07/04 12:20:52;;;;;;;5.60;2.10;;;;;;;;;;4992017;28;20033;-77
2022/07/04 12:23:19;;;;;;;4.93;2.30;;;;;;;;;;4977109;28;20556;-78
2022/07/04 12:25:47;;;;;;;8.10;2.00;;;;;;;;;;4995377;28;20069;-78
2022/07/04 12:28:15;;;;;;;8.05;2.10;;;;;;;;;;4996476;28;20022;-77
2022/07/04 12:30:53;;;;;;;5.35;2.00;;;;;;;;;;4992587;28;20112;-77
2022/07/04 12:33:20;;;;;;;5.38;1.90;;;;;;;;;;4974449;28;20033;-77
2022/07/04 12:36:03;;;;;;;4.10;1.80;;;;;;;;;;4993990;28;20322;-79
2022/07/04 12:38:28;;;;;;;10.60;1.92;;;;;;;;;;4992871;28;20081;-77
2022/07/04 12:40:59;;;;;;;8.93;2.10;;;;;;;;;;4994976;28;20027;-77
2022/07/04 12:43:43;;;;;;;4.43;2.10;;;;;;;;;;4998409;28;20027;-82
2022/07/04 12:46:29;;;;;;;4.78;1.95;;;;;;;;;;4996953;28;20056;-78
2022/07/04 12:48:56;;;;;;;9.20;2.53;;;;;;;;;;4999149;28;20309;-77
2022/07/04 12:51:24;;;;;;;6.40;2.50;;;;;;;;;;5000318;28;20057;-79
2022/07/04 12:53:52;;;;;;;4.53;2.45;;;;;;;;;;4983739;28;20322;-77
2022/07/04 12:56:37;;;;;;;6.30;2.55;;;;;;;;;;5000125;28;20043;-77
2022/07/04 12:59:05;;;;;;;6.72;2.85;;;;;;;;;;4993422;28;20029;-76
2022/07/04 13:01:31;;;;;;;6.75;2.58;;;;;;;;;;5001712;28;20026;-77
2022/07/04 13:03:58;;;;;;;6.55;2.50;;;;;;;;;;4996388;28;20065;-76
2022/07/04 13:06:23;;;;;;;8.02;2.15;;;;;;;;;;5000670;28;20086;-77
2022/07/04 13:08:49;;;;;;;7.28;2.33;;;;;;;;;;5000222;28;20053;-77
2022/07/04 13:14:00;;;;;;;4.60;2.30;;;;;;;;;;5000773;28;20026;-77
2022/07/04 13:16:26;;;;;;;4.30;2.00;;;;;;;;;;4999239;28;20229;-77
2022/07/04 13:18:51;;;;;;;6.50;2.30;;;;;;;;;;4998316;28;20034;-77
2022/07/04 13:21:17;;;;;;;7.40;1.88;;;;;;;;;;4998588;28;20038;-77
2022/07/04 13:23:45;;;;;;;4.53;1.90;;;;;;;;;;4993842;28;20062;-77
2022/07/04 13:26:10;;;;;;;7.10;1.90;;;;;;;;;;5000628;28;20018;-79
2022/07/04 13:28:36;;;;;;;5.97;1.85;;;;;;;;;;5000740;28;20034;-76
2022/07/04 13:31:01;;;;;;;4.07;1.90;;;;;;;;;;5000917;28;20022;-78
2022/07/04 13:33:27;;;;;;;4.05;1.95;;;;;;;;;;4996899;28;20026;-78
2022/07/04 13:35:53;;;;;;;3.67;1.88;;;;;;;;;;5000672;28;20352;-78
2022/07/04 13:38:19;;;;;;;5.45;1.80;;;;;;;;;;5000482;28;20030;-78
2022/07/04 13:40:44;;;;;;;4.65;1.80;;;;;;;;;;5000350;28;20022;-80
2022/07/04 13:43:11;;;;;;;7.35;1.80;;;;;;;;;;4996799;28;20073;-77
2022/07/04 13:45:39;;;;;;;4.82;1.80;;;;;;;;;;4999973;28;20098;-77
2022/07/04 13:48:05;;;;;;;5.50;1.77;;;;;;;;;;5003966;28;20183;-78
2022/07/04 13:50:31;;;;;;;4.85;1.67;;;;;;;;;;5004212;28;20026;-77
2022/07/04 13:52:56;;;;;;;6.28;2.00;;;;;;;;;;5002377;28;20042;-80
2022/07/04 13:55:22;;;;;;;6.55;2.10;;;;;;;;;;5002490;28;20045;-78
2022/07/04 13:57:47;;;;;;;4.95;1.85;;;;;;;;;;4986307;28;20033;-77
2022/07/04 14:00:13;;;;;;;4.35;1.90;;;;;;;;;;5003913;28;20030;-78
2022/07/04 14:02:38;;;;;;;3.70;1.90;;;;;;;;;;5003177;28;20101;-76
2022/07/04 14:05:04;;;;;;;4.00;1.60;;;;;;;;;;5003960;28;20033;-77
2022/07/04 14:07:30;;;;;;;6.70;1.67;;;;;;;;;;5003109;28;20018;-77
2022/07/04 14:09:56;;;;;;;6.13;2.03;;;;;;;;;;5003475;28;20239;-76
2022/07/04 14:12:21;;;;;;;2.83;1.50;;;;;;;;;;5003508;28;20190;-79
2022/07/04 14:14:47;;;;;;;4.97;1.80;;;;;;;;;;5003478;28;20026;-76
2022/07/04 14:17:12;;;;;;;4.03;1.70;;;;;;;;;;4980689;28;20034;-80
2022/07/04 14:19:38;;;;;;;7.68;1.90;;;;;;;;;;5003265;28;20517;-78
2022/07/04 14:22:03;;;;;;;5.25;1.85;;;;;;;;;;5003094;28;20026;-79
2022/07/04 14:24:29;;;;;;;4.68;1.70;;;;;;;;;;5003534;28;20030;-77
2022/07/04 14:26:54;;;;;;;5.10;1.80;;;;;;;;;;5002376;28;20033;-78
2022/07/04 14:29:20;;;;;;;5.97;1.90;;;;;;;;;;5003428;28;20330;-77
2022/07/04 14:31:46;;;;;;;4.05;1.67;;;;;;;;;;5003095;28;20018;-77
2022/07/04 14:34:12;;;;;;;3.33;1.38;;;;;;;;;;5001756;28;20412;-79
2022/07/04 14:36:39;;;;;;;4.97;1.60;;;;;;;;;;5002726;28;20022;-79
2022/07/04 14:39:05;;;;;;;6.03;1.90;;;;;;;;;;5001094;28;20034;-80
2022/07/04 14:41:31;;;;;;;4.40;1.70;;;;;;;;;;5001645;28;20033;-79
2022/07/04 14:43:56;;;;;;;4.43;1.67;;;;;;;;;;5000990;28;20032;-77
2022/07/04 14:46:22;;;;;;;4.85;1.60;;;;;;;;;;5001895;28;20062;-78
2022/07/04 14:48:47;;;;;;;5.55;1.55;;;;;;;;;;4999235;28;20030;-81
2022/07/04 14:51:12;;;;;;;4.65;1.90;;;;;;;;;;4992198;28;20614;-78
2022/07/04 14:53:38;;;;;;;3.95;1.70;;;;;;;;;;4990153;28;20448;-80
2022/07/04 14:56:04;;;;;;;3.92;1.63;;;;;;;;;;4991137;28;20045;-78
2022/07/04 14:58:29;;;;;;;4.03;1.70;;;;;;;;;;4991889;28;20024;-79
2022/07/04 15:00:55;;;;;;;6.53;1.92;;;;;;;;;;4990680;28;20037;-79
2022/07/04 15:03:21;;;;;;;3.65;1.70;;;;;;;;;;4992335;28;20030;-80
2022/07/04 15:05:47;;;;;;;3.90;1.75;;;;;;;;;;4992443;28;20101;-80